Time;durP1;ratioP1;P1;durP2;ratioP2;P2;SDS_P1;SDS_P2;PMS_P1;PMS_P2;Temp;Humidity;BMP_temperature;BMP_pressure;BME280_temperature;BME280_humidity;BME280_pressure;Samples;Min_cycle;Max_cycle;Signal;HPM_P1;HPM_P2
2023/03/25 00:00:59;;;;;;;0.73;0.40;;;8.10;99.90;;;7.42;100.00;96642.19;4993492;28;20008;-39
2023/03/25 00:03:36;;;;;;;1.23;0.55;;;8.00;99.90;;;7.30;100.00;96634.75;4985601;28;20033;-39
2023/03/25 00:06:05;;;;;;;1.58;0.50;;;7.90;99.90;;;7.10;100.00;96596.16;5002550;28;20038;-39
2023/03/25 00:08:31;;;;;;;1.27;0.47;;;7.80;99.90;;;7.12;100.00;96610.91;5003413;28;20034;-38
2023/03/25 00:10:59;;;;;;;0.68;0.30;;;7.80;99.90;;;7.10;100.00;96614.50;5008808;28;20037;-38
2023/03/25 00:13:26;;;;;;;1.27;0.30;;;7.70;99.90;;;7.05;100.00;96609.41;5000829;28;20036;-39
2023/03/25 00:15:56;;;;;;;3.00;0.60;;;7.60;99.90;;;6.99;100.00;96605.25;5000268;28;20037;-39
2023/03/25 00:18:28;;;;;;;1.55;0.30;;;7.60;99.90;;;6.88;100.00;96596.91;5001917;28;20026;-39
2023/03/25 00:20:53;;;;;;;1.23;0.40;;;7.50;99.90;;;6.88;100.00;96602.16;5003236;28;20033;-38
2023/03/25 00:23:21;;;;;;;2.58;0.55;;;7.50;99.90;;;6.85;100.00;96604.88;5005565;28;20029;-39
2023/03/25 00:25:47;;;;;;;1.45;0.35;;;7.40;99.90;;;6.82;100.00;96602.34;5004124;28;20048;-38
2023/03/25 00:28:15;;;;;;;2.10;0.40;;;7.40;99.90;;;6.84;100.00;96605.78;5007227;28;23921;-38
2023/03/25 00:30:42;;;;;;;1.30;0.30;;;7.30;99.90;;;6.72;100.00;96612.31;5007722;28;20029;-38
2023/03/25 00:33:12;;;;;;;0.75;0.40;;;7.30;99.90;;;6.60;100.00;96616.19;4999891;28;20504;-38
2023/03/25 00:35:43;;;;;;;3.13;0.40;;;7.20;99.90;;;6.50;100.00;96618.25;4992591;28;20055;-38
2023/03/25 00:38:10;;;;;;;0.85;0.30;;;7.10;99.90;;;6.39;100.00;96615.16;5008982;28;20086;-38
2023/03/25 00:40:36;;;;;;;1.63;0.40;;;7.00;99.90;;;6.29;100.00;96611.13;5002843;28;20099;-38
2023/03/25 00:43:04;;;;;;;2.58;0.30;;;6.90;99.90;;;6.33;100.00;96614.50;5010870;28;20481;-39
2023/03/25 00:45:31;;;;;;;2.33;0.63;;;6.90;99.90;;;6.24;100.00;96592.91;5008525;28;20116;-38
2023/03/25 00:47:56;;;;;;;1.30;0.40;;;6.90;99.90;;;6.17;100.00;96604.50;5001872;28;20116;-38
2023/03/25 00:50:23;;;;;;;2.22;0.40;;;6.80;99.90;;;6.21;100.00;96600.91;5005619;28;20048;-38
2023/03/25 00:52:50;;;;;;;0.30;0.30;;;6.80;99.90;;;6.12;100.00;96598.59;4998434;28;20021;-38
2023/03/25 00:55:19;;;;;;;4.38;0.60;;;6.80;99.90;;;6.10;100.00;96600.38;5002317;28;20541;-38
2023/03/25 00:57:45;;;;;;;2.30;0.50;;;6.70;99.90;;;6.06;100.00;96586.53;5005841;28;20113;-38
2023/03/25 01:00:15;;;;;;;1.33;0.60;;;6.70;99.90;;;5.99;100.00;96594.63;5009568;28;20040;-38
2023/03/25 01:02:41;;;;;;;0.80;0.50;;;6.60;99.90;;;5.91;100.00;96595.69;5004749;28;20026;-38
2023/03/25 01:05:09;;;;;;;2.63;0.80;;;6.50;99.90;;;5.83;100.00;96574.16;5005586;28;20099;-38
2023/03/25 01:07:40;;;;;;;1.50;0.60;;;6.50;99.90;;;5.86;100.00;96579.28;5000360;28;20049;-38
2023/03/25 01:10:07;;;;;;;2.20;0.55;;;6.40;99.90;;;5.84;100.00;96580.22;5006651;28;20294;-38
2023/03/25 01:12:32;;;;;;;1.23;0.45;;;6.40;99.90;;;5.82;100.00;96575.03;5003445;28;20512;-38
2023/03/25 01:14:58;;;;;;;2.38;0.70;;;6.40;99.90;;;5.82;100.00;96588.13;5001619;28;20199;-38
2023/03/25 01:17:24;;;;;;;2.88;0.80;;;6.40;99.90;;;5.87;100.00;96585.38;5008440;28;20025;-38
2023/03/25 01:19:50;;;;;;;2.28;0.60;;;6.40;99.90;;;5.88;100.00;96594.94;4995028;28;20303;-38
2023/03/25 01:22:15;;;;;;;3.92;0.75;;;6.40;99.90;;;5.89;100.00;96581.81;4996474;28;20462;-38
2023/03/25 01:24:41;;;;;;;2.65;0.60;;;6.40;99.90;;;5.90;100.00;96594.00;4981851;28;20048;-38
2023/03/25 01:27:07;;;;;;;2.42;0.73;;;6.40;99.90;;;5.90;100.00;96588.75;5000183;28;20468;-38
2023/03/25 01:29:33;;;;;;;3.42;0.90;;;6.50;99.90;;;5.91;100.00;96587.00;4999582;28;20053;-38
2023/03/25 01:31:58;;;;;;;2.13;0.57;;;6.50;99.90;;;5.91;100.00;96581.75;5000227;28;20033;-38
2023/03/25 01:34:24;;;;;;;4.78;0.82;;;6.50;99.90;;;5.89;100.00;96565.25;5000895;28;20444;-38
2023/03/25 01:36:53;;;;;;;5.88;0.60;;;6.50;99.90;;;5.90;100.00;96564.34;5001427;28;20040;-38
2023/03/25 01:39:20;;;;;;;2.58;0.80;;;6.50;99.90;;;5.93;100.00;96579.94;5002802;28;20038;-39
2023/03/25 01:41:49;;;;;;;1.90;0.70;;;6.50;99.90;;;5.98;100.00;96577.22;4995699;28;20026;-38
2023/03/25 01:44:23;;;;;;;3.28;0.82;;;6.60;99.90;;;6.03;100.00;96570.06;5001069;28;20026;-38
2023/03/25 01:46:51;;;;;;;2.30;0.68;;;6.70;99.90;;;6.06;100.00;96559.50;5001214;28;20037;-38
2023/03/25 01:49:32;;;;;;;4.10;0.88;;;6.70;99.90;;;6.14;100.00;96573.22;5008427;28;20447;-38
2023/03/25 01:52:18;;;;;;;4.05;0.93;;;6.80;99.90;;;6.18;100.00;96573.97;4988855;28;20176;-38
2023/03/25 01:54:45;;;;;;;2.22;0.60;;;6.80;99.90;;;6.19;100.00;96573.91;5000729;28;20030;-38
2023/03/25 01:57:16;;;;;;;5.78;0.77;;;6.80;99.90;;;6.13;100.00;96566.25;4992625;28;20037;-38
2023/03/25 01:59:42;;;;;;;3.58;0.70;;;6.80;99.90;;;6.17;100.00;96567.84;4990982;28;20030;-38
2023/03/25 02:02:09;;;;;;;2.80;0.65;;;6.80;99.90;;;6.15;100.00;96545.25;5003026;28;20033;-39
2023/03/25 02:05:00;;;;;;;3.40;0.65;;;6.80;99.90;;;6.19;100.00;96554.72;4998336;28;20065;-38
2023/03/25 02:07:29;;;;;;;2.20;0.50;;;6.80;99.90;;;6.14;100.00;96541.78;4988012;28;20405;-38
2023/03/25 02:10:01;;;;;;;3.78;0.95;;;6.80;99.90;;;6.09;100.00;96547.16;5016254;23;20205;-38
2023/03/25 02:12:27;;;;;;;2.08;0.55;;;6.70;99.90;;;6.05;100.00;96542.09;5032928;28;20384;-38
2023/03/25 02:14:54;;;;;;;4.53;0.77;;;6.70;99.90;;;6.02;100.00;96542.19;5032134;28;20098;-38
2023/03/25 02:17:43;;;;;;;1.98;0.52;;;6.60;99.90;;;5.98;100.00;96540.59;5030265;28;20021;-38
2023/03/25 02:20:23;;;;;;;3.08;0.65;;;6.60;99.90;;;5.99;100.00;96550.13;5020529;28;20030;-38
2023/03/25 02:23:01;;;;;;;1.98;0.57;;;6.60;99.90;;;5.91;100.00;96530.25;4973877;28;20038;-38
2023/03/25 02:26:23;;;;;;;1.10;0.47;;;6.70;99.90;;;6.11;100.00;96557.59;5008399;28;20026;-38
2023/03/25 02:28:55;;;;;;;2.55;0.50;;;6.70;99.90;;;6.19;100.00;96557.31;5007539;28;20068;-38
2023/03/25 02:31:45;;;;;;;5.15;0.70;;;6.80;99.90;;;6.33;100.00;96562.97;5010911;28;20033;-38
2023/03/25 02:34:16;;;;;;;2.38;0.57;;;6.90;99.90;;;6.42;100.00;96567.88;4996282;28;20068;-38
2023/03/25 02:37:08;;;;;;;3.55;0.70;;;7.00;99.90;;;6.48;100.00;96567.69;5009928;28;20068;-40
2023/03/25 02:39:51;;;;;;;3.05;0.73;;;7.10;99.90;;;6.55;100.00;96591.94;5011493;28;22386;-40
2023/03/25 02:42:34;;;;;;;3.80;0.95;;;7.20;99.90;;;6.57;100.00;96590.09;5012712;28;20017;-41
2023/03/25 02:45:15;;;;;;;1.92;0.60;;;7.20;99.90;;;6.65;100.00;96595.94;5013344;28;20033;-41
2023/03/25 02:47:49;;;;;;;7.43;0.80;;;7.30;99.90;;;6.71;100.00;96610.56;5010989;28;20021;-42
2023/03/25 02:50:27;;;;;;;4.03;0.70;;;7.30;99.90;;;6.69;100.00;96629.00;5014021;28;20456;-41
2023/03/25 02:53:00;;;;;;;2.33;0.70;;;7.30;99.90;;;6.57;100.00;96637.25;4987874;28;20034;-42
2023/03/25 02:55:32;;;;;;;1.58;0.30;;;7.20;99.90;;;6.34;100.00;96618.84;4991692;28;20120;-42
2023/03/25 02:58:02;;;;;;;3.92;0.60;;;7.00;99.90;;;6.05;100.00;96613.63;5005828;28;20061;-41
2023/03/25 03:00:29;;;;;;;1.73;0.40;;;6.80;99.90;;;5.77;100.00;96587.41;5011045;28;20678;-41
2023/03/25 03:03:02;;;;;;;2.78;0.40;;;6.50;99.90;;;5.66;100.00;96582.50;4995805;28;20073;-41
2023/03/25 03:05:39;;;;;;;2.67;0.60;;;6.40;99.90;;;5.52;100.00;96572.47;5010853;28;20091;-42
2023/03/25 03:08:42;;;;;;;3.35;0.47;;;6.20;99.90;;;5.43;100.00;96575.34;5009952;28;20303;-41
2023/03/25 03:12:07;;;;;;;2.40;0.60;;;6.10;99.90;;;5.37;100.00;96580.78;5011627;28;20029;-41
2023/03/25 03:14:53;;;;;;;1.00;0.40;;;6.00;99.90;;;5.33;100.00;96572.16;4911188;29;20039;-41
2023/03/25 03:21:07;;;;;;;3.33;0.47;;;6.00;99.90;;;5.32;100.00;96564.38;4902814;28;20200;-42
2023/03/25 03:24:06;;;;;;;2.03;0.77;;;6.00;99.90;;;5.28;100.00;96563.59;5008889;28;20261;-42
2023/03/25 03:27:07;;;;;;;2.92;0.93;;;6.00;99.90;;;5.28;100.00;96560.13;5009058;28;20056;-42
2023/03/25 03:29:44;;;;;;;4.00;0.60;;;6.00;99.90;;;5.27;100.00;96577.56;4983274;28;20049;-41
2023/03/25 03:32:14;;;;;;;3.55;0.60;;;5.90;99.90;;;5.32;100.00;96574.81;5007326;28;20314;-41
2023/03/25 03:34:47;;;;;;;0.93;0.47;;;6.00;99.90;;;5.29;100.00;96574.91;4992469;28;20512;-42
2023/03/25 03:37:20;;;;;;;0.50;0.40;;;6.00;99.90;;;5.32;100.00;96580.91;5003518;28;20076;-41
2023/03/25 03:39:47;;;;;;;;;;;6.00;99.90;;;5.39;100.00;96578.13;5006479;28;20059;-41
2023/03/25 03:42:23;;;;;;;0.88;0.47;;;6.00;99.90;;;5.29;100.00;96567.94;5005276;28;19944;-42
2023/03/25 03:44:58;;;;;;;2.45;0.60;;;6.00;99.90;;;5.37;100.00;96590.38;4990069;28;20037;-42
2023/03/25 03:47:30;;;;;;;3.28;0.70;;;5.90;99.90;;;5.29;100.00;96593.19;5011827;28;20034;-42
2023/03/25 03:50:03;;;;;;;1.20;0.50;;;5.90;99.90;;;5.30;100.00;96602.78;4989794;28;20022;-42
2023/03/25 03:52:44;;;;;;;0.93;0.50;;;5.90;99.90;;;5.29;100.00;96608.88;4992688;28;20500;-41
2023/03/25 03:55:31;;;;;;;1.63;0.60;;;5.90;99.90;;;5.29;100.00;96616.72;4996586;28;20029;-41
2023/03/25 03:58:06;;;;;;;0.52;0.22;;;5.90;99.90;;;5.26;100.00;96622.06;4993647;28;20060;-42
2023/03/25 04:00:43;;;;;;;2.97;0.40;;;5.90;99.90;;;5.19;100.00;96617.88;5007771;28;20409;-41
2023/03/25 04:03:23;;;;;;;1.17;0.38;;;5.80;99.90;;;5.13;100.00;96619.78;4994568;28;20084;-41
2023/03/25 04:05:58;;;;;;;4.05;0.55;;;5.70;99.90;;;5.10;100.00;96617.25;4989077;28;20022;-42
2023/03/25 04:08:36;;;;;;;0.80;0.43;;;5.70;99.90;;;5.07;100.00;96614.72;5002677;28;20041;-42
2023/03/25 04:11:08;;;;;;;0.40;0.30;;;5.70;99.90;;;5.08;100.00;96615.56;5003424;28;20056;-42
2023/03/25 04:13:38;;;;;;;0.60;0.40;;;5.70;99.90;;;5.07;100.00;96621.72;5009566;28;20029;-42
2023/03/25 04:16:06;;;;;;;0.40;0.22;;;5.70;99.90;;;5.07;100.00;96626.94;4993655;28;20037;-41
2023/03/25 04:18:32;;;;;;;0.73;0.32;;;5.70;99.90;;;4.99;100.00;96619.31;4991170;28;20087;-41
2023/03/25 04:20:59;;;;;;;1.38;0.90;;;5.70;99.90;;;5.00;100.00;96618.41;5009877;28;20125;-41
2023/03/25 04:23:29;;;;;;;1.00;0.38;;;5.60;99.90;;;4.81;100.00;96602.38;5009382;28;20501;-42
2023/03/25 04:25:55;;;;;;;1.23;0.28;;;5.60;99.90;;;4.93;100.00;96628.16;5012397;28;20040;-42
2023/03/25 04:28:22;;;;;;;0.50;0.30;;;5.60;99.90;;;4.93;100.00;96637.75;4994704;28;20034;-42
2023/03/25 04:30:54;;;;;;;0.63;0.30;;;5.50;99.90;;;4.87;100.00;96632.72;5008167;28;20036;-41
2023/03/25 04:33:22;;;;;;;0.53;0.30;;;5.50;99.90;;;4.78;100.00;96621.59;5012315;28;20374;-42
2023/03/25 04:35:49;;;;;;;0.90;0.40;;;5.50;99.90;;;4.73;100.00;96623.47;5000124;28;20026;-41
2023/03/25 04:38:18;;;;;;;0.75;0.30;;;5.40;99.90;;;4.70;100.00;96623.56;5007723;28;20029;-41
2023/03/25 04:40:46;;;;;;;1.65;0.40;;;5.30;99.90;;;4.62;100.00;96622.88;5012609;28;20034;-42
2023/03/25 04:43:13;;;;;;;1.35;0.40;;;5.30;99.90;;;4.56;100.00;96621.28;5011948;28;20072;-42
2023/03/25 04:45:41;;;;;;;0.43;0.30;;;5.30;99.90;;;4.55;100.00;96623.94;5005504;28;20233;-41
2023/03/25 04:48:20;;;;;;;4.97;0.55;;;5.20;99.90;;;4.52;100.00;96631.84;5012190;28;20149;-42
2023/03/25 04:50:46;;;;;;;0.65;0.25;;;5.20;99.90;;;4.51;100.00;96635.38;4991064;28;20037;-42
2023/03/25 04:53:11;;;;;;;1.88;0.47;;;5.20;99.90;;;4.44;100.00;96629.44;5005301;28;20044;-42
2023/03/25 04:55:37;;;;;;;1.20;0.90;;;5.10;99.90;;;4.41;100.00;96629.50;5008991;28;20033;-42
2023/03/25 04:58:03;;;;;;;1.58;0.52;;;5.10;99.90;;;4.31;100.00;96622.81;5011770;28;20063;-42
2023/03/25 05:00:29;;;;;;;1.15;0.50;;;5.10;99.90;;;4.34;100.00;96626.22;5010719;28;20041;-42
2023/03/25 05:02:55;;;;;;;2.50;0.60;;;5.00;99.90;;;4.35;100.00;96629.66;5017090;28;20060;-42
2023/03/25 05:05:23;;;;;;;1.67;0.55;;;5.00;99.90;;;4.45;100.00;96639.00;5008899;28;20170;-42
2023/03/25 05:07:56;;;;;;;3.40;0.45;;;5.10;99.90;;;4.42;100.00;96638.22;5007596;28;20144;-42
2023/03/25 05:10:25;;;;;;;1.70;0.40;;;5.10;99.90;;;4.40;100.00;96654.75;5008564;28;20734;-42
2023/03/25 05:12:58;;;;;;;0.82;0.55;;;5.10;99.90;;;4.44;100.00;96652.09;5009904;28;20075;-42
2023/03/25 05:15:25;;;;;;;2.83;0.60;;;5.10;99.90;;;4.64;100.00;96646.38;5003640;28;20034;-42
2023/03/25 05:17:51;;;;;;;3.55;0.57;;;5.20;99.90;;;4.77;100.00;96651.25;5002137;28;20029;-42
2023/03/25 05:20:16;;;;;;;2.50;1.13;;;5.30;99.90;;;4.88;100.00;96660.53;5015261;28;20084;-42
2023/03/25 05:22:44;;;;;;;3.45;0.70;;;5.50;99.90;;;5.08;100.00;96660.88;5011327;28;20091;-42
2023/03/25 05:25:10;;;;;;;2.92;0.85;;;5.60;99.90;;;5.15;100.00;96669.38;5012153;28;20283;-42
2023/03/25 05:27:38;;;;;;;2.65;0.50;;;5.70;99.90;;;5.24;100.00;96665.66;5011708;28;20030;-42
2023/03/25 05:30:06;;;;;;;1.83;0.60;;;5.80;99.90;;;5.35;100.00;96663.63;5011770;28;20247;-42
2023/03/25 05:32:34;;;;;;;3.25;0.70;;;5.90;99.90;;;5.37;100.00;96667.06;5016034;28;20517;-41
2023/03/25 05:35:03;;;;;;;4.32;1.20;;;6.00;99.90;;;5.46;100.00;96674.66;5014525;28;20164;-42
2023/03/25 05:37:29;;;;;;;3.47;0.80;;;6.10;99.90;;;5.46;100.00;96669.41;5012890;28;20052;-42
2023/03/25 05:39:55;;;;;;;4.30;0.90;;;6.10;99.90;;;5.48;100.00;96664.13;5009256;28;20073;-42
2023/03/25 05:42:21;;;;;;;7.53;1.15;;;6.10;99.90;;;5.52;100.00;96665.75;5022862;28;20028;-42
2023/03/25 05:44:52;;;;;;;3.67;0.68;;;6.10;99.90;;;5.57;100.00;96663.03;5006220;28;20151;-42
2023/03/25 05:47:23;;;;;;;3.65;0.82;;;6.20;99.90;;;5.57;100.00;96653.41;5016250;28;20029;-42
2023/03/25 05:49:51;;;;;;;3.85;0.70;;;6.20;99.90;;;5.46;100.00;96632.81;5012439;28;20038;-43
2023/03/25 05:52:18;;;;;;;7.63;1.15;;;6.20;99.90;;;5.71;100.00;96653.88;5014243;28;20042;-42
2023/03/25 05:54:50;;;;;;;4.38;0.70;;;6.30;99.90;;;5.75;100.00;96652.00;5017350;28;20037;-42
2023/03/25 05:57:16;;;;;;;3.15;0.73;;;6.30;99.90;;;5.79;100.00;96652.78;5014499;28;20033;-42
2023/03/25 05:59:42;;;;;;;2.45;0.90;;;6.40;99.90;;;5.83;100.00;96652.66;5012475;28;20037;-43
2023/03/25 06:02:14;;;;;;;5.38;1.00;;;6.40;99.90;;;5.79;100.00;96656.25;5019045;28;20488;-42
2023/03/25 06:04:40;;;;;;;3.83;0.70;;;6.40;99.90;;;5.84;100.00;96670.06;5014323;28;20459;-42
2023/03/25 06:07:18;;;;;;;3.47;0.75;;;6.40;99.90;;;5.91;100.00;96676.81;5010363;28;20335;-41
2023/03/25 06:09:48;;;;;;;5.53;1.15;;;6.50;99.90;;;6.01;100.00;96671.34;5008625;28;20038;-42
2023/03/25 06:12:21;;;;;;;3.90;0.85;;;6.60;99.90;;;6.10;100.00;96679.78;5014605;28;20557;-42
2023/03/25 06:14:52;;;;;;;2.17;0.82;;;6.70;99.90;;;6.13;100.00;96667.50;5001925;28;20665;-42
2023/03/25 06:17:23;;;;;;;3.42;0.75;;;6.80;99.90;;;6.33;100.00;96688.66;5012563;28;20130;-42
2023/03/25 06:19:50;;;;;;;4.05;1.10;;;6.90;99.90;;;6.47;100.00;96688.22;5011780;28;20548;-42
2023/03/25 06:22:19;;;;;;;3.40;0.95;;;7.00;99.90;;;6.56;100.00;96694.94;5019535;28;20051;-42
2023/03/25 06:24:47;;;;;;;2.05;0.82;;;7.10;99.90;;;6.63;100.00;96694.69;5011832;28;20038;-42
2023/03/25 06:27:16;;;;;;;3.85;0.70;;;7.20;99.90;;;6.63;100.00;96688.59;5014962;28;20033;-42
2023/03/25 06:29:43;;;;;;;2.85;0.73;;;7.30;99.90;;;6.74;100.00;96690.88;5015835;28;20038;-42
2023/03/25 06:32:11;;;;;;;3.58;0.60;;;7.30;99.90;;;6.92;100.00;96695.50;5015748;28;20033;-42
2023/03/25 06:34:38;;;;;;;6.15;1.10;;;7.50;99.90;;;6.84;100.00;96679.19;5010896;28;20440;-42
2023/03/25 06:37:04;;;;;;;5.18;0.93;;;7.50;99.90;;;6.76;100.00;96691.66;5014047;28;20025;-42
2023/03/25 06:39:30;;;;;;;2.15;0.75;;;7.40;99.90;;;6.64;100.00;96683.31;5013718;28;20065;-43
2023/03/25 06:41:58;;;;;;;3.53;0.90;;;7.30;99.90;;;6.55;100.00;96683.63;5014148;28;20033;-42
2023/03/25 06:44:24;;;;;;;3.05;0.80;;;7.30;99.90;;;6.60;100.00;96694.78;5010995;28;20544;-42
2023/03/25 06:46:50;;;;;;;1.58;0.50;;;7.20;99.90;;;6.64;100.00;96696.41;5005370;28;20051;-42
2023/03/25 06:49:16;;;;;;;3.78;0.80;;;7.30;99.90;;;6.67;100.00;96696.28;5009182;28;20120;-39
2023/03/25 06:51:42;;;;;;;3.05;0.85;;;7.30;99.90;;;6.75;100.00;96697.81;5008324;28;20037;-40
2023/03/25 06:54:07;;;;;;;3.42;0.70;;;7.30;99.90;;;6.65;100.00;96676.31;5008775;28;20092;-39
2023/03/25 06:56:33;;;;;;;2.35;0.90;;;7.30;99.90;;;6.77;100.00;96703.88;5008077;28;20496;-42
2023/03/25 06:58:59;;;;;;;1.92;0.60;;;7.40;99.90;;;6.85;100.00;96696.59;5007731;28;20582;-42
2023/03/25 07:01:25;;;;;;;5.30;0.70;;;7.50;99.90;;;6.89;100.00;96698.19;5013720;28;20026;-42
2023/03/25 07:03:50;;;;;;;5.35;0.65;;;7.50;99.90;;;6.79;100.00;96694.19;5011910;28;20029;-41
2023/03/25 07:06:22;;;;;;;2.92;0.77;;;7.40;99.90;;;6.82;100.00;96707.19;5011161;28;20471;-42
2023/03/25 07:08:48;;;;;;;3.38;0.80;;;7.40;99.90;;;6.88;100.00;96697.34;4998806;28;20083;-41
2023/03/25 07:11:23;;;;;;;3.10;0.73;;;7.50;99.90;;;6.97;100.00;96711.06;5019071;28;20037;-41
2023/03/25 07:13:52;;;;;;;2.97;1.00;;;7.60;99.90;;;7.16;100.00;96711.28;4999095;28;20087;-42
2023/03/25 07:16:20;;;;;;;2.13;0.70;;;7.70;99.90;;;7.40;100.00;96715.69;5016788;28;20037;-41
2023/03/25 07:18:45;;;;;;;2.85;0.90;;;8.00;99.90;;;7.50;100.00;96697.00;5017919;28;20048;-40
2023/03/25 07:21:11;;;;;;;8.13;1.10;;;8.20;99.90;;;7.67;100.00;96718.25;5012362;28;20038;-42
2023/03/25 07:23:37;;;;;;;4.00;0.80;;;8.30;99.90;;;7.67;100.00;96713.00;5016495;28;20041;-41
2023/03/25 07:26:03;;;;;;;4.63;0.77;;;8.30;99.90;;;7.65;100.00;96709.56;5006329;28;20509;-42
2023/03/25 07:28:28;;;;;;;4.85;0.70;;;8.30;99.90;;;7.63;100.00;96714.88;5004909;28;20124;-41
2023/03/25 07:30:54;;;;;;;2.67;0.70;;;8.30;99.90;;;7.72;100.00;96708.44;5013351;28;20030;-41
2023/03/25 07:33:20;;;;;;;2.60;0.57;;;8.30;99.90;;;7.73;100.00;96704.88;5010020;28;20088;-42
2023/03/25 07:35:46;;;;;;;2.08;0.80;;;8.30;99.90;;;7.67;100.00;96709.53;5007558;28;20037;-41
2023/03/25 07:38:11;;;;;;;3.28;0.70;;;8.30;99.90;;;7.63;100.00;96703.53;5015230;28;20025;-40
2023/03/25 07:40:37;;;;;;;4.40;0.88;;;8.20;99.90;;;7.74;100.00;96709.22;5009520;28;20793;-41
2023/03/25 07:43:03;;;;;;;2.50;0.73;;;8.30;99.90;;;7.89;100.00;96709.56;5009073;28;20028;-41
2023/03/25 07:45:29;;;;;;;4.53;0.82;;;8.40;99.90;;;7.96;100.00;96698.78;5009214;28;20101;-41
2023/03/25 07:47:54;;;;;;;1.55;0.73;;;8.60;99.90;;;8.21;100.00;96714.47;4997332;28;20044;-41
2023/03/25 07:50:22;;;;;;;2.50;0.68;;;8.70;99.90;;;8.34;100.00;96706.09;5015418;28;20033;-41
2023/03/25 07:52:48;;;;;;;2.58;0.60;;;8.90;99.90;;;8.51;100.00;96701.09;5008041;28;20547;-41
2023/03/25 07:55:15;;;;;;;4.10;0.80;;;9.10;99.90;;;8.78;100.00;96709.63;5008514;28;20333;-41
2023/03/25 07:57:41;;;;;;;4.03;0.60;;;9.30;99.90;;;8.96;100.00;96701.91;5001239;28;20517;-41
2023/03/25 08:00:09;;;;;;;4.88;0.70;;;9.60;99.90;;;9.16;100.00;96699.28;5008389;28;20531;-41
2023/03/25 08:02:35;;;;;;;2.10;0.65;;;9.80;99.90;;;9.23;100.00;96678.84;5014939;28;20036;-41
2023/03/25 08:05:02;;;;;;;2.13;0.55;;;10.00;99.90;;;9.63;100.00;96689.38;5006449;28;20031;-40
2023/03/25 08:07:27;;;;;;;2.92;0.55;;;10.20;99.90;;;9.67;100.00;96701.47;5014218;28;20440;-41
2023/03/25 08:09:53;;;;;;;2.63;0.57;;;10.30;99.90;;;9.69;100.00;96678.56;5032534;22;20140;-45
2023/03/25 08:12:19;;;;;;;3.45;0.70;;;10.40;99.90;;;9.82;100.00;96692.91;5015355;28;20045;-46
2023/03/25 08:14:45;;;;;;;1.67;0.63;;;10.40;99.90;;;9.84;100.00;96693.69;5004857;28;20775;-48
2023/03/25 08:17:11;;;;;;;1.40;0.50;;;10.40;99.90;;;9.87;100.00;96685.66;5015220;28;20107;-47
2023/03/25 08:19:36;;;;;;;1.80;0.50;;;10.50;99.90;;;9.94;100.00;96692.34;5005329;28;20068;-48
2023/03/25 08:22:02;;;;;;;1.67;0.68;;;10.50;99.90;;;9.90;100.00;96687.28;4988639;28;20047;-47
2023/03/25 08:24:28;;;;;;;1.52;0.60;;;10.50;99.90;;;9.93;100.00;96701.16;5011927;28;20436;-45
2023/03/25 08:26:55;;;;;;;3.53;0.50;;;10.60;99.90;;;10.08;100.00;96704.88;5009570;28;20523;-46
2023/03/25 08:29:21;;;;;;;1.27;0.30;;;10.70;99.90;;;10.24;100.00;96706.81;5013799;28;20037;-49
2023/03/25 08:31:50;;;;;;;0.90;0.40;;;10.80;99.90;;;10.34;100.00;96702.84;4988004;28;20029;-46
2023/03/25 08:34:18;;;;;;;1.40;0.80;;;11.00;99.90;;;10.46;100.00;96701.41;5011288;28;20030;-46
2023/03/25 08:36:43;;;;;;;3.53;0.60;;;11.10;99.90;;;10.52;100.00;96708.19;5004259;28;20045;-46
2023/03/25 08:39:10;;;;;;;1.98;0.43;;;11.10;99.90;;;10.29;100.00;96710.09;5011697;28;20045;-47
2023/03/25 08:41:37;;;;;;;3.13;0.55;;;11.00;99.90;;;10.17;100.00;96716.78;5006704;28;20029;-46
2023/03/25 08:44:04;;;;;;;1.45;0.40;;;10.90;99.90;;;9.91;100.00;96718.81;5013566;28;20059;-49
2023/03/25 08:46:30;;;;;;;1.42;0.47;;;10.60;99.90;;;9.71;100.00;96709.19;5010511;28;20036;-52
2023/03/25 08:48:56;;;;;;;0.47;0.20;;;10.40;99.90;;;9.60;100.00;96707.94;5010771;28;20034;-49
2023/03/25 08:51:22;;;;;;;0.85;0.50;;;10.30;99.90;;;9.55;100.00;96706.38;5013310;28;20033;-48
2023/03/25 08:53:47;;;;;;;0.63;0.30;;;10.20;99.90;;;9.57;100.00;96713.38;5007434;28;20498;-46
2023/03/25 08:56:13;;;;;;;0.40;0.25;;;10.20;99.90;;;9.35;100.00;96703.78;5008446;28;20034;-47
2023/03/25 08:58:39;;;;;;;0.20;0.20;;;10.10;99.90;;;9.34;100.00;96723.09;5012214;28;20029;-47
2023/03/25 09:01:05;;;;;;;0.90;0.47;;;10.00;99.90;;;8.96;100.00;96723.78;5013988;28;20041;-46
2023/03/25 09:03:32;;;;;;;0.95;0.30;;;9.80;99.90;;;8.65;100.00;96728.56;5008081;28;20033;-46
2023/03/25 09:06:03;;;;;;;1.45;0.40;;;9.50;99.90;;;8.57;100.00;96726.25;5008164;28;20034;-45
2023/03/25 09:08:29;;;;;;;1.25;0.60;;;9.30;99.90;;;8.41;100.00;96726.81;5006247;28;20025;-48
2023/03/25 09:10:55;;;;;;;1.17;0.30;;;9.20;99.90;;;8.44;100.00;96707.50;5000022;28;21875;-49
2023/03/25 09:13:21;;;;;;;1.70;0.40;;;9.10;99.90;;;8.48;100.00;96706.44;5000391;28;20073;-47
2023/03/25 09:15:46;;;;;;;0.95;0.30;;;9.10;99.90;;;8.72;100.00;96690.59;5001469;28;20037;-50
2023/03/25 09:18:12;;;;;;;1.00;0.30;;;9.30;99.90;;;9.10;100.00;96694.28;5012331;28;20065;-46
2023/03/25 09:20:38;;;;;;;0.93;0.38;;;9.60;99.90;;;9.42;100.00;96686.78;5012835;28;20498;-47
2023/03/25 09:23:04;;;;;;;2.88;0.50;;;9.90;99.90;;;9.42;100.00;96691.19;5015682;28;20115;-48
2023/03/25 09:25:29;;;;;;;1.92;0.60;;;10.10;99.90;;;9.71;100.00;96695.19;5010187;28;20041;-45
2023/03/25 09:27:55;;;;;;;1.75;0.40;;;10.30;99.90;;;9.74;100.00;96695.91;5004386;28;20029;-46
2023/03/25 09:30:21;;;;;;;2.33;0.55;;;10.40;99.90;;;9.87;100.00;96683.03;5011626;28;20037;-46
2023/03/25 09:32:46;;;;;;;1.60;0.70;;;10.50;99.90;;;9.91;100.00;96694.28;5009881;28;20041;-45
2023/03/25 09:35:12;;;;;;;0.95;0.55;;;10.60;99.90;;;10.07;100.00;96692.66;5010021;28;20048;-46
2023/03/25 09:37:38;;;;;;;3.40;0.50;;;10.60;99.90;;;9.90;100.00;96690.75;5006403;28;20052;-50
2023/03/25 09:40:04;;;;;;;1.33;0.40;;;10.50;99.90;;;9.88;100.00;96675.97;5007580;28;20072;-45
2023/03/25 09:42:58;;;;;;;3.45;0.73;;;10.40;99.90;;;9.84;100.00;96669.16;5010683;28;20830;-47
2023/03/25 09:45:39;;;;;;;1.15;0.40;;;10.40;99.90;;;9.91;100.00;96676.69;5003839;28;20037;-47
2023/03/25 09:48:38;;;;;;;2.35;0.55;;;10.50;99.90;;;9.92;100.00;96670.50;5006226;28;20088;-45
2023/03/25 09:51:08;;;;;;;3.05;0.65;;;10.50;99.90;;;9.92;100.00;96669.63;4984312;28;20092;-46
2023/03/25 09:53:52;;;;;;;1.27;0.43;;;10.60;99.90;;;10.28;100.00;96677.63;4978924;28;20033;-48
2023/03/25 09:56:27;;;;;;;2.05;0.38;;;10.90;99.90;;;10.62;100.00;96683.06;5006573;28;20034;-48
2023/03/25 09:59:02;;;;;;;1.98;0.40;;;11.20;99.90;;;10.76;100.00;96688.53;5003463;28;20044;-45
2023/03/25 10:02:12;;;;;;;1.73;0.50;;;11.30;99.90;;;10.64;100.00;96682.09;5006826;28;20037;-45
2023/03/25 10:04:56;;;;;;;2.58;0.55;;;11.20;99.90;;;10.18;100.00;96681.59;4991120;28;20041;-45
2023/03/25 10:07:28;;;;;;;1.70;0.50;;;10.80;99.90;;;9.77;100.00;96678.25;5010631;28;20025;-46
2023/03/25 10:10:18;;;;;;;2.92;0.60;;;10.40;99.90;;;9.53;100.00;96681.91;5009112;28;20029;-46
2023/03/25 10:13:27;;;;;;;4.07;0.98;;;10.20;99.90;;;9.53;100.00;96687.16;4980731;28;20148;-48
2023/03/25 10:16:00;;;;;;;1.52;0.52;;;10.20;99.90;;;9.64;100.00;96684.06;4975021;28;20421;-45
2023/03/25 10:18:47;;;;;;;1.67;0.50;;;10.30;99.90;;;9.69;100.00;96678.56;4986120;28;20036;-47
2023/03/25 10:21:44;;;;;;;0.98;0.47;;;10.30;99.90;;;9.71;100.00;96676.75;4987980;28;20041;-47
2023/03/25 10:24:19;;;;;;;2.58;0.50;;;10.40;99.90;;;9.58;100.00;96670.31;5005498;28;20033;-46
2023/03/25 10:26:55;;;;;;;3.13;0.60;;;10.30;99.90;;;9.70;100.00;96653.97;4996715;28;20305;-49
2023/03/25 10:29:35;;;;;;;3.88;0.50;;;10.50;99.90;;;10.13;100.00;96673.06;4999776;28;20033;-50
2023/03/25 10:32:07;;;;;;;0.47;0.30;;;10.80;99.90;;;10.37;100.00;96668.44;5009757;28;20117;-47
2023/03/25 10:34:48;;;;;;;4.10;0.55;;;11.10;99.90;;;10.87;100.00;96670.41;5012652;28;20039;-48
2023/03/25 10:37:23;;;;;;;0.93;0.60;;;11.50;99.90;;;11.13;100.00;96670.03;5009634;28;20084;-49
2023/03/25 10:39:49;;;;;;;3.58;0.50;;;11.90;99.90;;;11.20;100.00;96669.63;4999123;28;20040;-50
2023/03/25 10:42:34;;;;;;;1.42;0.47;;;12.00;99.90;;;11.53;100.00;96684.66;5016525;28;20063;-48
2023/03/25 10:45:00;;;;;;;3.05;0.60;;;12.20;99.90;;;11.51;97.61;96672.47;4996015;28;20066;-48